createdAt,value
2023-04-24T00:02:14.925Z,9.32
2023-04-24T00:05:03.679Z,9.93
2023-04-24T00:07:56.465Z,9.02
2023-04-24T00:10:45.884Z,9.52
2023-04-24T00:13:34.571Z,10.13
2023-04-24T00:16:23.912Z,10.20
2023-04-24T00:19:13.946Z,10.57
2023-04-24T00:22:03.999Z,10.70
2023-04-24T00:24:52.864Z,11.07
2023-04-24T00:27:41.455Z,9.45
2023-04-24T00:30:30.713Z,9.52
2023-04-24T00:33:19.894Z,10.50
2023-04-24T00:36:09.370Z,10.85
2023-04-24T00:38:58.584Z,12.10
2023-04-24T00:41:49.167Z,11.65
2023-04-24T00:44:38.464Z,12.32
2023-04-24T00:47:27.961Z,12.30
2023-04-24T00:50:17.676Z,10.40
2023-04-24T00:53:06.823Z,9.68
2023-04-24T00:55:55.712Z,10.55
2023-04-24T00:58:45.857Z,13.50
2023-04-24T01:01:34.692Z,13.48
2023-04-24T01:04:23.750Z,11.48
2023-04-24T01:07:13.224Z,10.90
2023-04-24T01:10:01.860Z,10.27
2023-04-24T01:12:53.881Z,10.63
2023-04-24T01:15:42.630Z,10.60
2023-04-24T01:18:32.147Z,12.25
2023-04-24T01:21:22.744Z,10.23
2023-04-24T01:24:13.947Z,11.27
2023-04-24T01:27:02.790Z,9.85
2023-04-24T01:29:53.038Z,12.65
2023-04-24T01:32:45.641Z,11.98
2023-04-24T01:35:34.608Z,12.35
2023-04-24T01:38:24.024Z,13.32
2023-04-24T01:41:12.830Z,13.25
2023-04-24T01:44:02.917Z,12.27
2023-04-24T01:46:52.073Z,11.88
2023-04-24T01:49:41.391Z,11.88
2023-04-24T01:52:32.367Z,11.00
2023-04-24T01:55:21.127Z,11.63
2023-04-24T01:58:09.548Z,11.27
2023-04-24T02:01:00.020Z,11.77
2023-04-24T02:03:48.905Z,10.60
2023-04-24T02:06:38.315Z,10.30
2023-04-24T02:09:26.942Z,10.68
2023-04-24T02:12:16.475Z,11.70
2023-04-24T02:15:07.572Z,10.32
2023-04-24T02:20:50.004Z,10.00
2023-04-24T02:23:38.694Z,9.73
2023-04-24T02:26:28.109Z,9.80
2023-04-24T02:29:16.721Z,9.30
2023-04-24T02:32:05.836Z,8.68
2023-04-24T02:34:56.268Z,10.48
2023-04-24T02:37:45.487Z,9.15
2023-04-24T02:40:34.684Z,9.23
2023-04-24T02:43:23.191Z,8.85
2023-04-24T02:46:12.497Z,8.98
2023-04-24T02:49:01.947Z,9.23
2023-04-24T02:51:50.393Z,10.40
2023-04-24T02:54:39.699Z,10.93
2023-04-24T02:57:28.806Z,9.93
2023-04-24T03:00:17.916Z,12.10
2023-04-24T03:03:08.273Z,11.02
2023-04-24T03:05:58.189Z,10.77
2023-04-24T03:08:47.099Z,9.25
2023-04-24T03:11:35.978Z,10.40
2023-04-24T03:14:25.211Z,9.00
2023-04-24T03:17:14.007Z,9.82
2023-04-24T03:20:03.510Z,8.30
2023-04-24T03:22:52.831Z,9.02
2023-04-24T03:25:43.842Z,8.48
2023-04-24T03:28:34.017Z,8.80
2023-04-24T03:31:26.711Z,9.10
2023-04-24T03:34:15.385Z,8.43
2023-04-24T03:37:04.547Z,7.85
2023-04-24T03:39:55.082Z,8.52
2023-04-24T03:42:46.769Z,8.50
2023-04-24T03:45:35.229Z,9.05
2023-04-24T03:48:24.870Z,9.00
2023-04-24T03:51:13.522Z,8.18
2023-04-24T03:54:05.919Z,8.30
2023-04-24T03:56:57.746Z,8.90
2023-04-24T03:59:49.037Z,8.00
2023-04-24T04:02:41.406Z,8.80
2023-04-24T04:05:32.372Z,8.35
2023-04-24T04:08:20.823Z,8.60
2023-04-24T04:11:10.950Z,7.82
2023-04-24T04:14:00.224Z,8.00
2023-04-24T04:16:49.277Z,7.57
2023-04-24T04:19:38.244Z,7.63
2023-04-24T04:22:26.669Z,7.97
2023-04-24T04:25:15.327Z,9.07
2023-04-24T04:28:05.413Z,8.82
2023-04-24T04:30:58.568Z,8.93
2023-04-24T04:33:48.091Z,8.20
2023-04-24T04:36:38.039Z,8.35
2023-04-24T04:39:45.916Z,7.72
2023-04-24T04:42:41.522Z,9.23
2023-04-24T04:45:31.812Z,9.30
2023-04-24T04:48:41.628Z,8.55
2023-04-24T04:51:31.276Z,9.40
2023-04-24T04:54:20.591Z,9.48
2023-04-24T04:57:10.405Z,7.45
2023-04-24T04:59:59.636Z,9.35
2023-04-24T05:03:09.388Z,9.40
2023-04-24T05:06:10.362Z,8.50
2023-04-24T05:09:01.092Z,8.30
2023-04-24T05:12:00.056Z,7.07
2023-04-24T05:14:50.940Z,8.77
2023-04-24T05:17:41.889Z,8.32
2023-04-24T05:20:31.183Z,7.55
2023-04-24T05:23:20.104Z,9.55
2023-04-24T05:26:12.642Z,6.93
2023-04-24T05:29:02.519Z,8.60
2023-04-24T05:31:51.559Z,8.85
2023-04-24T05:34:41.125Z,7.63
2023-04-24T05:37:30.311Z,8.25
2023-04-24T05:40:18.706Z,7.43
2023-04-24T05:43:08.465Z,7.90
2023-04-24T05:45:57.481Z,7.90
2023-04-24T05:48:46.768Z,8.25
2023-04-24T05:51:35.410Z,8.85
2023-04-24T05:54:24.809Z,8.75
2023-04-24T05:57:14.593Z,8.55
2023-04-24T06:00:21.147Z,8.63
2023-04-24T06:03:18.661Z,7.65
2023-04-24T06:06:10.048Z,8.18
2023-04-24T06:09:00.163Z,8.52
2023-04-24T06:11:53.992Z,10.48
2023-04-24T06:14:46.089Z,9.18
2023-04-24T06:17:42.649Z,9.60
2023-04-24T06:20:31.647Z,9.68
2023-04-24T06:23:20.221Z,10.65
2023-04-24T06:26:11.389Z,9.68
2023-04-24T06:29:01.344Z,9.73
2023-04-24T06:31:50.538Z,10.07
2023-04-24T06:34:40.002Z,10.88
2023-04-24T06:37:29.462Z,9.45
2023-04-24T06:40:21.584Z,11.98
2023-04-24T06:43:10.822Z,10.43
2023-04-24T06:46:00.331Z,11.13
2023-04-24T06:48:49.386Z,9.65
2023-04-24T06:51:38.255Z,9.23
2023-04-24T06:54:27.078Z,12.60
2023-04-24T06:57:17.304Z,11.63
2023-04-24T07:00:08.314Z,12.13
2023-04-24T07:02:58.757Z,11.75
2023-04-24T07:05:49.248Z,11.50
2023-04-24T07:08:37.809Z,12.25
2023-04-24T07:11:30.470Z,13.20
2023-04-24T07:14:19.956Z,12.83
2023-04-24T07:17:08.694Z,12.63
2023-04-24T07:19:57.473Z,12.18
2023-04-24T07:22:46.833Z,13.57
2023-04-24T07:25:36.249Z,12.30
2023-04-24T07:28:24.771Z,11.57
2023-04-24T07:31:13.718Z,12.13
2023-04-24T07:34:03.379Z,11.63
2023-04-24T07:36:52.939Z,14.15
2023-04-24T07:39:42.786Z,25.88
2023-04-24T07:42:32.063Z,12.98
2023-04-24T07:45:21.708Z,14.32
2023-04-24T07:48:10.675Z,13.68
2023-04-24T07:51:00.510Z,15.13
2023-04-24T07:53:48.899Z,12.52
2023-04-24T07:56:40.451Z,13.30
2023-04-24T07:59:29.777Z,13.32
2023-04-24T08:02:18.608Z,13.15
2023-04-24T08:05:08.121Z,14.90
2023-04-24T08:07:57.644Z,15.65
2023-04-24T08:10:46.902Z,16.80
2023-04-24T08:13:36.375Z,13.75
2023-04-24T08:16:25.349Z,14.45
2023-04-24T08:19:13.944Z,13.80
2023-04-24T08:22:02.959Z,14.07
2023-04-24T08:24:53.177Z,12.88
2023-04-24T08:27:41.683Z,13.50
2023-04-24T08:30:30.457Z,13.70
2023-04-24T08:33:20.314Z,13.40
2023-04-24T08:36:09.333Z,11.35
2023-04-24T08:38:58.198Z,11.90
2023-04-24T08:41:47.773Z,14.88
2023-04-24T08:44:38.424Z,13.00
2023-04-24T08:47:28.914Z,13.63
2023-04-24T08:50:18.741Z,13.48
2023-04-24T08:53:08.812Z,13.18
2023-04-24T08:55:57.962Z,14.82
2023-04-24T08:58:47.723Z,15.50
2023-04-24T09:01:38.615Z,12.10
2023-04-24T09:04:29.302Z,13.38
2023-04-24T09:07:21.300Z,13.63
2023-04-24T09:10:36.214Z,16.08
2023-04-24T09:13:26.050Z,16.13
2023-04-24T09:16:15.885Z,15.73
2023-04-24T09:19:04.815Z,15.40
2023-04-24T09:21:55.235Z,14.90
2023-04-24T09:24:44.390Z,14.25
2023-04-24T09:27:34.302Z,14.80
2023-04-24T09:30:24.247Z,13.13
2023-04-24T09:33:17.217Z,10.70
2023-04-24T09:36:07.586Z,9.43
2023-04-24T09:39:00.585Z,9.07
2023-04-24T09:41:54.112Z,8.65
2023-04-24T09:44:42.749Z,8.70
2023-04-24T09:47:41.846Z,7.72
2023-04-24T09:50:33.277Z,7.90
2023-04-24T09:53:27.265Z,7.32
2023-04-24T09:56:16.300Z,8.63
2023-04-24T09:59:08.655Z,8.73
2023-04-24T10:02:00.005Z,9.48
2023-04-24T10:05:00.610Z,8.95
2023-04-24T10:07:53.180Z,7.90
2023-04-24T10:10:44.903Z,7.50
2023-04-24T10:13:34.493Z,7.50
2023-04-24T10:16:25.045Z,6.85
2023-04-24T10:19:16.251Z,7.22
2023-04-24T10:22:07.688Z,7.60
2023-04-24T10:25:00.079Z,6.25
2023-04-24T10:27:49.980Z,6.93
2023-04-24T10:30:40.684Z,5.95
2023-04-24T10:33:31.716Z,6.55
2023-04-24T10:36:23.020Z,5.68
2023-04-24T10:39:14.630Z,5.82
2023-04-24T10:42:02.984Z,4.50
2023-04-24T10:44:52.419Z,4.90
2023-04-24T10:47:42.481Z,4.60
2023-04-24T10:50:52.778Z,4.07
2023-04-24T10:53:41.784Z,4.22
2023-04-24T10:56:31.508Z,5.30
2023-04-24T10:59:28.301Z,4.78
2023-04-24T11:02:17.744Z,4.10
2023-04-24T11:05:07.961Z,4.30
2023-04-24T11:08:17.308Z,4.45
2023-04-24T11:11:17.333Z,4.72
2023-04-24T11:14:10.676Z,3.97
2023-04-24T11:16:59.311Z,3.72
2023-04-24T11:19:53.575Z,4.82
2023-04-24T11:22:44.330Z,3.60
2023-04-24T11:25:33.971Z,3.70
2023-04-24T11:28:26.339Z,3.10
2023-04-24T11:31:39.614Z,3.90
2023-04-24T11:34:28.555Z,3.20
2023-04-24T11:37:17.952Z,2.58
2023-04-24T11:40:08.636Z,2.92
2023-04-24T11:43:02.244Z,3.47
2023-04-24T11:45:50.961Z,3.67
2023-04-24T11:48:41.454Z,3.60
2023-04-24T11:51:33.785Z,3.05
2023-04-24T11:54:30.272Z,3.28
2023-04-24T11:57:22.828Z,4.10
2023-04-24T12:00:35.621Z,3.80
2023-04-24T12:03:25.299Z,3.67
2023-04-24T12:06:15.086Z,2.92
2023-04-24T12:09:11.382Z,3.92
2023-04-24T12:12:08.443Z,3.25
2023-04-24T12:14:58.468Z,3.55
2023-04-24T12:17:48.376Z,3.83
2023-04-24T12:20:37.244Z,2.38
2023-04-24T12:23:37.061Z,2.53
2023-04-24T12:26:26.880Z,2.97
2023-04-24T12:29:22.414Z,2.95
2023-04-24T12:32:18.354Z,2.80
2023-04-24T12:35:07.838Z,2.40
2023-04-24T12:37:57.395Z,2.50
2023-04-24T12:40:45.842Z,2.60
2023-04-24T12:43:36.297Z,2.80
2023-04-24T12:46:25.203Z,3.20
2023-04-24T12:49:14.385Z,3.22
2023-04-24T12:52:06.524Z,4.43
2023-04-24T12:54:57.004Z,2.60
2023-04-24T12:57:46.424Z,3.35
2023-04-24T13:00:35.625Z,3.00
2023-04-24T13:03:25.407Z,2.28
2023-04-24T13:06:14.331Z,2.25
2023-04-24T13:09:03.262Z,3.30
2023-04-24T13:11:52.154Z,3.42
2023-04-24T13:14:41.616Z,2.58
2023-04-24T13:17:30.583Z,2.70
2023-04-24T13:20:19.344Z,2.72
2023-04-24T13:23:08.132Z,2.80
2023-04-24T13:25:59.489Z,2.92
2023-04-24T13:28:48.891Z,2.40
2023-04-24T13:31:37.778Z,2.88
2023-04-24T13:34:27.297Z,2.85
2023-04-24T13:37:16.050Z,2.90
2023-04-24T13:40:07.268Z,3.72
2023-04-24T13:42:56.781Z,3.00
2023-04-24T13:45:46.354Z,2.40
2023-04-24T13:48:35.372Z,2.95
2023-04-24T13:51:28.350Z,2.85
2023-04-24T13:54:17.297Z,2.78
2023-04-24T13:57:06.819Z,3.08
2023-04-24T13:59:57.476Z,3.15
2023-04-24T14:02:46.154Z,3.05
2023-04-24T14:05:36.299Z,3.25
2023-04-24T14:08:26.493Z,2.75
2023-04-24T14:11:16.408Z,2.83
2023-04-24T14:14:05.554Z,2.65
2023-04-24T14:16:54.234Z,3.38
2023-04-24T14:19:43.674Z,2.53
2023-04-24T14:22:33.072Z,3.00
2023-04-24T14:25:21.666Z,3.22
2023-04-24T14:28:10.516Z,2.90
2023-04-24T14:30:59.445Z,3.78
2023-04-24T14:33:47.870Z,2.83
2023-04-24T14:36:37.810Z,2.60
2023-04-24T14:39:27.885Z,3.03
2023-04-24T14:42:17.989Z,4.22
2023-04-24T14:45:06.791Z,3.80
2023-04-24T14:47:56.652Z,3.25
2023-04-24T14:50:46.368Z,4.13
2023-04-24T14:53:35.062Z,3.90
2023-04-24T14:56:25.155Z,3.00
2023-04-24T14:59:15.407Z,2.63
2023-04-24T15:02:15.599Z,2.60
2023-04-24T15:05:05.787Z,2.72
2023-04-24T15:07:55.360Z,2.58
2023-04-24T15:10:44.434Z,2.55
2023-04-24T15:13:33.469Z,2.92
2023-04-24T15:16:22.400Z,4.63
2023-04-24T15:19:11.933Z,2.70
2023-04-24T15:22:00.423Z,3.00
2023-04-24T15:24:49.427Z,3.67
2023-04-24T15:27:43.978Z,2.83
2023-04-24T15:30:33.477Z,3.20
2023-04-24T15:33:22.860Z,2.83
2023-04-24T15:36:12.098Z,2.67
2023-04-24T15:39:05.241Z,3.38
2023-04-24T15:41:56.552Z,3.13
2023-04-24T15:44:46.049Z,2.90
2023-04-24T15:47:35.172Z,3.33
2023-04-24T15:50:24.796Z,3.20
2023-04-24T15:53:13.726Z,3.22
2023-04-24T15:56:02.664Z,3.25
2023-04-24T15:58:51.650Z,3.45
2023-04-24T16:01:41.378Z,3.63
2023-04-24T16:04:30.473Z,3.45
2023-04-24T16:07:19.121Z,3.75
2023-04-24T16:10:09.234Z,3.08
2023-04-24T16:13:01.098Z,3.75
2023-04-24T16:15:50.645Z,3.67
2023-04-24T16:18:40.145Z,4.07
2023-04-24T16:21:29.497Z,3.83
2023-04-24T16:24:17.921Z,3.67
2023-04-24T16:27:06.724Z,4.22
2023-04-24T16:29:57.182Z,3.65
2023-04-24T16:32:46.281Z,4.53
2023-04-24T16:35:35.246Z,3.60
2023-04-24T16:38:27.572Z,4.80
2023-04-24T16:41:17.281Z,4.15
2023-04-24T16:44:06.368Z,3.85
2023-04-24T16:46:55.869Z,3.15
2023-04-24T16:49:45.693Z,3.60
2023-04-24T16:52:35.385Z,3.72
2023-04-24T16:55:25.259Z,4.63
2023-04-24T16:58:14.143Z,4.22
2023-04-24T17:01:03.265Z,3.80
2023-04-24T17:03:52.688Z,5.68
2023-04-24T17:06:41.888Z,4.20
2023-04-24T17:09:31.133Z,4.60
2023-04-24T17:12:20.117Z,4.50
2023-04-24T17:15:09.168Z,3.55
2023-04-24T17:17:58.736Z,3.70
2023-04-24T17:20:47.829Z,3.85
2023-04-24T17:23:37.561Z,4.68
2023-04-24T17:26:27.150Z,4.68
2023-04-24T17:29:15.947Z,3.83
2023-04-24T17:32:04.831Z,4.10
2023-04-24T17:34:53.644Z,4.28
2023-04-24T17:37:42.048Z,4.25
2023-04-24T17:40:31.296Z,4.88
2023-04-24T17:43:24.085Z,4.60
2023-04-24T17:46:13.416Z,4.37
2023-04-24T17:49:01.915Z,5.25
2023-04-24T17:51:50.842Z,5.13
2023-04-24T17:54:39.790Z,3.85
2023-04-24T17:57:28.491Z,3.95
2023-04-24T18:00:17.746Z,5.07
2023-04-24T18:03:08.846Z,3.90
2023-04-24T18:05:58.527Z,3.97
2023-04-24T18:08:47.498Z,4.65
2023-04-24T18:11:35.990Z,3.35
2023-04-24T18:14:25.895Z,3.78
2023-04-24T18:17:14.395Z,3.42
2023-04-24T18:20:03.999Z,3.92
2023-04-24T18:22:52.665Z,4.07
2023-04-24T18:25:41.742Z,4.50
2023-04-24T18:28:31.730Z,4.85
2023-04-24T18:31:20.929Z,4.60
2023-04-24T18:34:10.255Z,3.95
2023-04-24T18:36:58.615Z,5.13
2023-04-24T18:39:47.586Z,4.57
2023-04-24T18:42:36.064Z,4.40
2023-04-24T18:45:24.815Z,4.78
2023-04-24T18:48:13.717Z,4.70
2023-04-24T18:51:02.596Z,5.50
2023-04-24T18:53:52.392Z,5.53
2023-04-24T18:56:41.674Z,4.53
2023-04-24T18:59:30.602Z,4.25
2023-04-24T19:02:19.636Z,4.97
2023-04-24T19:05:10.529Z,5.05
2023-04-24T19:08:00.217Z,5.30
2023-04-24T19:10:49.124Z,6.05
2023-04-24T19:13:37.569Z,6.88
2023-04-24T19:16:26.551Z,7.55
2023-04-24T19:19:16.367Z,7.82
2023-04-24T19:22:05.489Z,7.70
2023-04-24T19:24:54.516Z,6.63
2023-04-24T19:27:42.764Z,6.82
2023-04-24T19:30:31.616Z,6.68
2023-04-24T19:33:21.334Z,9.63
2023-04-24T19:36:10.856Z,9.00
2023-04-24T19:38:59.900Z,9.75
2023-04-24T19:41:49.320Z,10.15
2023-04-24T19:44:37.604Z,8.70
2023-04-24T19:47:26.606Z,8.50
2023-04-24T19:50:15.823Z,9.85
2023-04-24T19:53:06.602Z,10.45
2023-04-24T19:55:55.528Z,11.30
2023-04-24T19:58:44.818Z,13.43
2023-04-24T20:01:34.021Z,14.73
2023-04-24T20:04:23.683Z,14.25
2023-04-24T20:07:12.482Z,10.90
2023-04-24T20:10:01.751Z,9.82
2023-04-24T20:12:53.727Z,10.85
2023-04-24T20:15:42.642Z,18.15
2023-04-24T20:18:31.787Z,17.42
2023-04-24T20:21:45.220Z,17.27
2023-04-24T20:24:34.530Z,15.33
2023-04-24T20:27:23.299Z,14.38
2023-04-24T20:30:16.044Z,17.13
2023-04-24T20:33:05.622Z,16.65
2023-04-24T20:35:55.017Z,16.52
2023-04-24T20:38:43.510Z,15.48
2023-04-24T20:41:32.308Z,22.80
2023-04-24T20:44:21.556Z,14.57
2023-04-24T20:47:10.864Z,13.38
2023-04-24T20:50:02.348Z,11.02
2023-04-24T20:52:52.434Z,12.23
2023-04-24T20:55:41.847Z,13.13
2023-04-24T20:58:31.440Z,11.55
2023-04-24T21:01:20.548Z,10.95
2023-04-24T21:04:09.410Z,12.60
2023-04-24T21:06:58.362Z,11.88
2023-04-24T21:09:46.928Z,14.32
2023-04-24T21:12:35.823Z,15.20
2023-04-24T21:15:24.821Z,9.15
2023-04-24T21:18:13.745Z,6.40
2023-04-24T21:21:27.071Z,7.70
2023-04-24T21:24:15.781Z,10.63
2023-04-24T21:27:04.998Z,8.35
2023-04-24T21:29:54.383Z,9.25
2023-04-24T21:32:43.254Z,9.05
2023-04-24T21:35:31.639Z,9.88
2023-04-24T21:38:23.462Z,8.85
2023-04-24T21:41:12.722Z,8.25
2023-04-24T21:44:01.509Z,9.35
2023-04-24T21:46:51.224Z,10.57
2023-04-24T21:49:40.033Z,10.57
2023-04-24T21:52:28.803Z,8.50
2023-04-24T21:55:42.682Z,8.63
2023-04-24T21:58:31.801Z,9.18
2023-04-24T22:01:20.968Z,10.38
2023-04-24T22:04:10.444Z,9.80
2023-04-24T22:06:59.124Z,9.90
2023-04-24T22:09:47.620Z,11.05
2023-04-24T22:12:36.416Z,9.23
2023-04-24T22:15:28.394Z,9.75
2023-04-24T22:18:18.846Z,8.55
2023-04-24T22:21:07.865Z,7.57
2023-04-24T22:23:57.124Z,8.68
2023-04-24T22:26:46.247Z,6.82
2023-04-24T22:29:35.784Z,7.00
2023-04-24T22:32:24.825Z,7.35
2023-04-24T22:35:13.523Z,7.55
2023-04-24T22:38:02.356Z,8.30
2023-04-24T22:40:51.340Z,10.07
2023-04-24T22:43:40.663Z,9.02
2023-04-24T22:46:31.415Z,7.82
2023-04-24T22:49:21.767Z,7.72
2023-04-24T22:52:10.311Z,7.78
2023-04-24T22:54:59.184Z,7.95
2023-04-24T22:57:50.087Z,9.35
2023-04-24T23:00:38.845Z,9.50
2023-04-24T23:03:27.502Z,9.20
2023-04-24T23:06:15.989Z,9.85
2023-04-24T23:09:04.821Z,9.68
2023-04-24T23:11:53.533Z,8.32
2023-04-24T23:14:41.978Z,7.35
2023-04-24T23:17:30.393Z,7.22
2023-04-24T23:20:19.585Z,8.55
2023-04-24T23:23:08.983Z,7.45
2023-04-24T23:25:57.394Z,6.75
2023-04-24T23:28:46.095Z,8.38
2023-04-24T23:31:34.698Z,8.13
2023-04-24T23:34:23.346Z,7.78
2023-04-24T23:37:12.602Z,7.90
2023-04-24T23:40:01.578Z,7.50
2023-04-24T23:43:05.752Z,7.90
2023-04-24T23:45:55.957Z,5.88
2023-04-24T23:48:44.921Z,6.00
2023-04-24T23:51:33.346Z,6.90
2023-04-24T23:54:22.449Z,7.63
2023-04-24T23:57:10.761Z,7.50
